Terminal Aerodrome Forecast
Issued by NWS Portland, OR

Home | Current Version | Previous Version | Text Only | Print | Product List | Glossary On
Versions: 1 2 3 4 5 6 7 8 9 10 11 12 13 14 15 16 17 18 19 20 21 22 23 24
000
FTUS46 KPQR 310529
TAFAST
TAF
KAST 310529Z 3106/0106 22003KT 6SM -RA BR BKN030 OVC045
     FM311200 20005KT P6SM -RA SCT025 BKN050
     FM311800 22007KT P6SM VCSH BKN060 BKN100=

USA.gov is the U.S. government's official web portal to all federal, state and local government web resources and services.